createdAt,value
2023-03-16T00:00:13.633Z,100.00
2023-03-16T00:01:13.644Z,100.00
2023-03-16T00:02:13.680Z,100.00
2023-03-16T00:03:13.764Z,100.00
2023-03-16T00:04:13.963Z,100.00
2023-03-16T00:05:13.044Z,100.00
2023-03-16T00:06:13.289Z,100.00
2023-03-16T00:07:13.334Z,100.00
2023-03-16T00:08:13.562Z,100.00
2023-03-16T00:09:13.501Z,100.00
2023-03-16T00:10:13.812Z,100.00
2023-03-16T00:11:13.758Z,100.00
2023-03-16T00:12:13.773Z,100.00
2023-03-16T00:13:13.883Z,100.00
2023-03-16T00:14:13.935Z,100.00
2023-03-16T00:15:13.008Z,100.00
2023-03-16T00:16:13.178Z,100.00
2023-03-16T00:17:13.268Z,100.00
2023-03-16T00:18:13.256Z,100.00
2023-03-16T00:19:13.348Z,100.00
2023-03-16T00:20:13.257Z,100.00
2023-03-16T00:21:14.084Z,100.00
2023-03-16T00:22:13.007Z,100.00
2023-03-16T00:23:13.235Z,100.00
2023-03-16T00:24:13.257Z,100.00
2023-03-16T00:25:13.148Z,100.00
2023-03-16T00:26:13.276Z,100.00
2023-03-16T00:27:13.594Z,100.00
2023-03-16T00:28:13.538Z,100.00
2023-03-16T00:29:13.465Z,100.00
2023-03-16T00:30:13.382Z,100.00
2023-03-16T00:31:13.395Z,100.00
2023-03-16T00:32:13.420Z,100.00
2023-03-16T00:33:13.857Z,100.00
2023-03-16T00:34:14.076Z,100.00
2023-03-16T00:35:13.076Z,100.00
2023-03-16T00:36:13.820Z,100.00
2023-03-16T00:37:14.007Z,100.00
2023-03-16T00:38:12.973Z,100.00
2023-03-16T00:39:12.951Z,100.00
2023-03-16T00:40:13.096Z,100.00
2023-03-16T00:41:13.047Z,100.00
2023-03-16T00:42:13.031Z,100.00
2023-03-16T00:43:13.386Z,100.00
2023-03-16T00:44:13.642Z,100.00
2023-03-16T00:45:13.595Z,100.00
2023-03-16T00:46:13.621Z,100.00
2023-03-16T00:47:13.712Z,100.00
2023-03-16T00:48:13.627Z,100.00
2023-03-16T00:49:13.544Z,100.00
2023-03-16T00:50:13.724Z,100.00
2023-03-16T00:51:13.782Z,100.00
2023-03-16T00:52:13.993Z,100.00
2023-03-16T00:53:13.152Z,100.00
2023-03-16T00:54:13.188Z,100.00
2023-03-16T00:55:13.479Z,100.00
2023-03-16T00:56:14.406Z,100.00
2023-03-16T00:57:13.336Z,100.00
2023-03-16T00:58:13.457Z,100.00
2023-03-16T00:59:13.836Z,100.00
2023-03-16T01:00:13.847Z,100.00
2023-03-16T01:01:15.178Z,100.00
2023-03-16T01:02:13.303Z,100.00
2023-03-16T01:03:13.571Z,100.00
2023-03-16T01:04:13.763Z,100.00
2023-03-16T01:05:13.846Z,100.00
2023-03-16T01:06:13.760Z,100.00
2023-03-16T01:07:13.878Z,100.00
2023-03-16T01:08:12.872Z,100.00
2023-03-16T01:09:14.019Z,100.00
2023-03-16T01:10:12.978Z,100.00
2023-03-16T01:11:13.257Z,100.00
2023-03-16T01:12:13.399Z,100.00
2023-03-16T01:13:13.407Z,100.00
2023-03-16T01:14:13.388Z,100.00
2023-03-16T01:15:13.408Z,100.00
2023-03-16T01:16:13.233Z,100.00
2023-03-16T01:17:13.217Z,100.00
2023-03-16T01:18:13.219Z,100.00
2023-03-16T01:19:13.269Z,100.00
2023-03-16T01:20:13.170Z,100.00
2023-03-16T01:21:13.374Z,100.00
2023-03-16T01:22:13.341Z,100.00
2023-03-16T01:23:13.520Z,100.00
2023-03-16T01:24:14.801Z,100.00
2023-03-16T01:25:13.952Z,100.00
2023-03-16T01:26:12.877Z,100.00
2023-03-16T01:27:13.852Z,100.00
2023-03-16T01:28:14.861Z,100.00
2023-03-16T01:29:13.866Z,100.00
2023-03-16T01:30:13.768Z,100.00
2023-03-16T01:31:13.886Z,100.00
2023-03-16T01:32:12.961Z,100.00
2023-03-16T01:33:12.826Z,100.00
2023-03-16T01:34:13.785Z,100.00
2023-03-16T01:35:13.949Z,100.00
2023-03-16T01:36:12.876Z,100.00
2023-03-16T01:37:13.096Z,100.00
2023-03-16T01:38:13.050Z,100.00
2023-03-16T01:39:12.982Z,100.00
2023-03-16T01:40:13.312Z,100.00
2023-03-16T01:41:13.237Z,100.00
2023-03-16T01:42:13.424Z,100.00
2023-03-16T01:43:13.508Z,100.00
2023-03-16T01:44:13.362Z,100.00
2023-03-16T01:45:13.471Z,100.00
2023-03-16T01:46:13.498Z,100.00
2023-03-16T01:47:13.763Z,100.00
2023-03-16T01:48:13.879Z,100.00
2023-03-16T01:49:12.827Z,100.00
2023-03-16T01:50:13.756Z,100.00
2023-03-16T01:51:13.653Z,100.00
2023-03-16T01:52:13.802Z,100.00
2023-03-16T01:53:13.982Z,100.00
2023-03-16T01:54:12.997Z,100.00
2023-03-16T01:55:13.005Z,100.00
2023-03-16T01:56:13.090Z,100.00
2023-03-16T01:57:13.362Z,100.00
2023-03-16T01:58:13.587Z,100.00
2023-03-16T01:59:13.670Z,100.00
2023-03-16T02:00:13.786Z,100.00
2023-03-16T02:01:13.786Z,100.00
2023-03-16T02:02:14.158Z,100.00
2023-03-16T02:03:13.613Z,100.00
2023-03-16T02:04:13.573Z,100.00
2023-03-16T02:05:13.868Z,100.00
2023-03-16T02:06:14.071Z,100.00
2023-03-16T02:07:13.525Z,100.00
2023-03-16T02:08:13.699Z,100.00
2023-03-16T02:09:13.788Z,100.00
2023-03-16T02:10:13.962Z,100.00
2023-03-16T02:11:12.925Z,100.00
2023-03-16T02:12:12.986Z,100.00
2023-03-16T02:13:12.928Z,100.00
2023-03-16T02:14:13.206Z,100.00
2023-03-16T02:15:13.135Z,100.00
2023-03-16T02:16:13.147Z,100.00
2023-03-16T02:17:13.248Z,100.00
2023-03-16T02:18:13.538Z,100.00
2023-03-16T02:19:13.616Z,100.00
2023-03-16T02:20:13.675Z,100.00
2023-03-16T02:21:13.598Z,100.00
2023-03-16T02:22:13.606Z,100.00
2023-03-16T02:23:13.767Z,100.00
2023-03-16T02:24:13.857Z,100.00
2023-03-16T02:25:14.049Z,100.00
2023-03-16T02:26:12.979Z,100.00
2023-03-16T02:27:13.050Z,100.00
2023-03-16T02:28:13.235Z,100.00
2023-03-16T02:29:13.608Z,100.00
2023-03-16T02:30:13.589Z,100.00
2023-03-16T02:31:13.626Z,100.00
2023-03-16T02:32:13.721Z,100.00
2023-03-16T02:33:13.764Z,100.00
2023-03-16T02:34:13.773Z,100.00
2023-03-16T02:35:13.751Z,100.00
2023-03-16T02:36:13.603Z,100.00
2023-03-16T02:37:13.662Z,100.00
2023-03-16T02:38:13.682Z,100.00
2023-03-16T02:39:13.666Z,100.00
2023-03-16T02:40:13.649Z,100.00
2023-03-16T02:41:13.560Z,100.00
2023-03-16T02:42:13.563Z,100.00
2023-03-16T02:43:13.744Z,100.00
2023-03-16T02:44:13.797Z,100.00
2023-03-16T02:45:13.744Z,100.00
2023-03-16T02:46:13.731Z,100.00
2023-03-16T02:47:14.178Z,100.00
2023-03-16T02:48:13.110Z,100.00
2023-03-16T02:49:13.063Z,100.00
2023-03-16T02:50:13.005Z,100.00
2023-03-16T02:51:13.772Z,100.00
2023-03-16T02:52:13.648Z,100.00
2023-03-16T02:53:13.578Z,100.00
2023-03-16T02:54:13.718Z,100.00
2023-03-16T02:55:13.909Z,100.00
2023-03-16T02:56:12.744Z,100.00
2023-03-16T02:57:13.686Z,100.00
2023-03-16T02:58:13.608Z,100.00
2023-03-16T02:59:13.926Z,100.00
2023-03-16T03:00:12.894Z,100.00
2023-03-16T03:01:12.793Z,100.00
2023-03-16T03:02:14.804Z,100.00
2023-03-16T03:03:13.771Z,100.00
2023-03-16T03:04:13.769Z,100.00
2023-03-16T03:05:14.378Z,100.00
2023-03-16T03:06:13.371Z,100.00
2023-03-16T03:07:13.463Z,100.00
2023-03-16T03:08:13.522Z,100.00
2023-03-16T03:09:13.660Z,100.00
2023-03-16T03:10:13.691Z,100.00
2023-03-16T03:11:13.816Z,100.00
2023-03-16T03:12:14.014Z,100.00
2023-03-16T03:13:13.364Z,100.00
2023-03-16T03:14:13.468Z,100.00
2023-03-16T03:15:13.611Z,100.00
2023-03-16T03:16:13.564Z,100.00
2023-03-16T03:17:13.553Z,100.00
2023-03-16T03:18:13.488Z,100.00
2023-03-16T03:19:13.891Z,100.00
2023-03-16T03:20:13.915Z,100.00
2023-03-16T03:21:13.182Z,100.00
2023-03-16T03:22:13.182Z,100.00
2023-03-16T03:23:13.081Z,100.00
2023-03-16T03:24:13.052Z,100.00
2023-03-16T03:25:13.067Z,100.00
2023-03-16T03:26:13.524Z,100.00
2023-03-16T03:27:13.859Z,100.00
2023-03-16T03:28:14.258Z,100.00
2023-03-16T03:29:13.118Z,100.00
2023-03-16T03:30:13.036Z,100.00
2023-03-16T03:31:13.173Z,100.00
2023-03-16T03:32:13.147Z,100.00
2023-03-16T03:33:13.442Z,100.00
2023-03-16T03:34:13.839Z,100.00
2023-03-16T03:35:13.744Z,98.80
2023-03-16T03:36:13.926Z,99.00
2023-03-16T03:37:12.999Z,99.90
2023-03-16T03:38:13.127Z,99.60
2023-03-16T03:39:13.588Z,100.00
2023-03-16T03:40:13.715Z,100.00
2023-03-16T03:41:13.851Z,100.00
2023-03-16T03:42:13.984Z,100.00
2023-03-16T03:43:12.929Z,100.00
2023-03-16T03:44:13.269Z,100.00
2023-03-16T03:45:13.592Z,100.00
2023-03-16T03:46:14.056Z,100.00
2023-03-16T03:47:13.139Z,100.00
2023-03-16T03:48:13.177Z,100.00
2023-03-16T03:49:13.258Z,100.00
2023-03-16T03:50:13.260Z,100.00
2023-03-16T03:51:13.217Z,100.00
2023-03-16T03:52:13.360Z,100.00
2023-03-16T03:53:13.479Z,98.00
2023-03-16T03:54:13.345Z,99.10
2023-03-16T03:55:13.462Z,99.20
2023-03-16T03:56:13.575Z,100.00
2023-03-16T03:57:13.735Z,98.50
2023-03-16T03:58:13.633Z,98.20
2023-03-16T03:59:14.097Z,98.10
2023-03-16T04:00:13.198Z,100.00
2023-03-16T04:01:13.511Z,98.60
2023-03-16T04:02:13.595Z,97.10
2023-03-16T04:03:13.659Z,97.20
2023-03-16T04:04:13.608Z,95.20
2023-03-16T04:05:13.537Z,97.10
2023-03-16T04:06:13.602Z,96.40
2023-03-16T04:07:13.724Z,98.10
2023-03-16T04:08:13.768Z,95.00
2023-03-16T04:09:14.032Z,95.40
2023-03-16T04:10:13.121Z,96.50
2023-03-16T04:11:13.248Z,96.20
2023-03-16T04:12:13.689Z,97.10
2023-03-16T04:13:13.640Z,98.50
2023-03-16T04:14:13.633Z,97.30
2023-03-16T04:15:13.809Z,99.00
2023-03-16T04:16:13.706Z,98.90
2023-03-16T04:17:13.693Z,95.90
2023-03-16T04:18:13.881Z,95.50
2023-03-16T04:19:13.750Z,94.70
2023-03-16T04:20:13.606Z,97.70
2023-03-16T04:21:13.770Z,94.50
2023-03-16T04:22:14.077Z,95.00
2023-03-16T04:23:13.122Z,96.10
2023-03-16T04:24:13.449Z,96.40
2023-03-16T04:25:13.571Z,96.60
2023-03-16T04:26:13.841Z,95.70
2023-03-16T04:27:13.803Z,95.30
2023-03-16T04:28:14.184Z,93.50
2023-03-16T04:29:13.124Z,94.00
2023-03-16T04:30:13.260Z,93.00
2023-03-16T04:31:13.296Z,91.90
2023-03-16T04:32:13.627Z,91.00
2023-03-16T04:33:13.831Z,91.20
2023-03-16T04:34:13.754Z,93.30
2023-03-16T04:35:14.129Z,93.30
2023-03-16T04:36:13.208Z,91.70
2023-03-16T04:37:13.450Z,91.10
2023-03-16T04:38:13.646Z,91.50
2023-03-16T04:39:13.673Z,92.20
2023-03-16T04:40:13.796Z,92.60
2023-03-16T04:41:14.030Z,91.90
2023-03-16T04:42:13.330Z,92.70
2023-03-16T04:43:13.407Z,92.00
2023-03-16T04:44:13.324Z,91.20
2023-03-16T04:45:13.424Z,89.90
2023-03-16T04:46:13.583Z,91.10
2023-03-16T04:47:13.798Z,91.80
2023-03-16T04:48:13.996Z,90.90
2023-03-16T04:49:13.163Z,90.70
2023-03-16T04:50:13.283Z,90.70
2023-03-16T04:51:13.866Z,89.30
2023-03-16T04:52:12.892Z,90.10
2023-03-16T04:53:13.195Z,90.50
2023-03-16T04:54:13.233Z,90.30
2023-03-16T04:55:13.570Z,90.70
2023-03-16T04:56:13.742Z,91.90
2023-03-16T04:57:13.641Z,93.10
2023-03-16T04:58:13.547Z,92.10
2023-03-16T04:59:14.310Z,96.40
2023-03-16T05:00:13.359Z,93.20
2023-03-16T05:01:13.503Z,99.60
2023-03-16T05:02:13.443Z,94.70
2023-03-16T05:03:13.676Z,96.00
2023-03-16T05:04:19.193Z,95.70
2023-03-16T05:05:12.928Z,94.20
2023-03-16T05:06:12.917Z,92.70
2023-03-16T05:07:13.046Z,94.10
2023-03-16T05:08:12.969Z,92.60
2023-03-16T05:09:13.244Z,93.30
2023-03-16T05:10:13.184Z,93.70
2023-03-16T05:11:13.415Z,93.20
2023-03-16T05:12:13.525Z,94.80
2023-03-16T05:13:13.640Z,95.10
2023-03-16T05:14:14.140Z,96.80
2023-03-16T05:15:13.571Z,97.00
2023-03-16T05:16:18.589Z,96.30
2023-03-16T05:17:13.503Z,95.20
2023-03-16T05:18:13.604Z,94.50
2023-03-16T05:19:13.558Z,96.00
2023-03-16T05:20:15.941Z,97.80
2023-03-16T05:21:14.198Z,99.30
2023-03-16T05:22:13.344Z,98.10
2023-03-16T05:23:13.774Z,99.30
2023-03-16T05:24:13.801Z,98.80
2023-03-16T05:26:18.826Z,97.00
2023-03-16T05:27:14.078Z,97.40
2023-03-16T05:28:13.241Z,98.60
2023-03-16T05:29:13.226Z,100.00
2023-03-16T05:30:13.164Z,97.10
2023-03-16T05:31:13.150Z,99.10
2023-03-16T05:32:13.060Z,98.30
2023-03-16T05:33:13.401Z,99.50
2023-03-16T05:34:13.371Z,99.60
2023-03-16T05:35:13.556Z,98.50
2023-03-16T05:36:13.578Z,98.20
2023-03-16T05:37:13.635Z,99.70
2023-03-16T05:38:13.945Z,99.00
2023-03-16T05:39:12.850Z,99.90
2023-03-16T05:40:13.739Z,100.00
2023-03-16T05:41:14.105Z,98.60
2023-03-16T05:42:13.033Z,98.40
2023-03-16T05:43:13.293Z,98.60
2023-03-16T05:44:13.311Z,98.40
2023-03-16T05:45:13.563Z,100.00
2023-03-16T05:46:13.510Z,100.00
2023-03-16T05:47:13.402Z,100.00
2023-03-16T05:48:13.660Z,100.00
2023-03-16T05:49:13.665Z,100.00
2023-03-16T05:50:13.768Z,100.00
2023-03-16T05:51:13.842Z,100.00
2023-03-16T05:52:13.661Z,100.00
2023-03-16T05:53:13.737Z,100.00
2023-03-16T05:54:13.693Z,99.90
2023-03-16T05:55:13.924Z,99.70
2023-03-16T05:56:13.219Z,100.00
2023-03-16T05:57:13.518Z,98.30
2023-03-16T05:58:13.952Z,98.30
2023-03-16T05:59:13.150Z,100.00
2023-03-16T06:00:13.091Z,100.00
2023-03-16T06:01:13.084Z,100.00
2023-03-16T06:02:13.072Z,98.80
2023-03-16T06:03:13.236Z,98.80
2023-03-16T06:04:13.352Z,98.40
2023-03-16T06:05:13.635Z,99.20
2023-03-16T06:06:13.606Z,99.70
2023-03-16T06:07:13.562Z,99.20
2023-03-16T06:08:13.422Z,98.30
2023-03-16T06:09:13.715Z,98.50
2023-03-16T06:10:13.810Z,96.70
2023-03-16T06:11:13.775Z,97.00
2023-03-16T06:12:13.711Z,98.40
2023-03-16T06:13:13.645Z,98.00
2023-03-16T06:14:13.710Z,98.30
2023-03-16T06:15:14.020Z,96.90
2023-03-16T06:16:13.037Z,95.50
2023-03-16T06:17:13.733Z,96.50
2023-03-16T06:18:13.664Z,93.80
2023-03-16T06:19:13.777Z,95.20
2023-03-16T06:20:13.749Z,94.00
2023-03-16T06:21:13.650Z,93.50
2023-03-16T06:22:13.637Z,94.90
2023-03-16T06:23:13.609Z,95.30
2023-03-16T06:24:13.786Z,95.90
2023-03-16T06:25:13.946Z,95.00
2023-03-16T06:26:13.037Z,94.70
2023-03-16T06:27:13.111Z,94.00
2023-03-16T06:28:13.020Z,93.80
2023-03-16T06:29:13.143Z,96.00
2023-03-16T06:30:13.020Z,95.30
2023-03-16T06:31:13.211Z,95.00
2023-03-16T06:32:13.581Z,94.50
2023-03-16T06:33:13.612Z,95.80
2023-03-16T06:34:13.896Z,93.50
2023-03-16T06:35:12.843Z,93.40
2023-03-16T06:36:14.027Z,94.10
2023-03-16T06:37:13.027Z,94.20
2023-03-16T06:38:12.931Z,93.10
2023-03-16T06:39:13.319Z,93.10
2023-03-16T06:40:13.535Z,94.50
2023-03-16T06:41:13.758Z,94.80
2023-03-16T06:42:13.679Z,93.60
2023-03-16T06:43:14.724Z,91.80
2023-03-16T06:44:13.645Z,91.20
2023-03-16T06:45:13.627Z,90.40
2023-03-16T06:46:13.791Z,90.40
2023-03-16T06:47:13.953Z,90.60
2023-03-16T06:48:12.848Z,91.70
2023-03-16T06:49:13.840Z,92.20
2023-03-16T06:50:13.831Z,92.40
2023-03-16T06:51:16.670Z,91.50
2023-03-16T06:52:12.729Z,89.90
2023-03-16T06:53:13.864Z,90.80
2023-03-16T06:54:13.860Z,90.20
2023-03-16T06:55:13.977Z,88.50
2023-03-16T06:56:13.152Z,89.60
2023-03-16T06:57:13.083Z,90.80
2023-03-16T06:58:13.032Z,90.80
2023-03-16T06:59:13.418Z,89.10
2023-03-16T07:00:13.498Z,89.40
2023-03-16T07:01:13.420Z,89.00
2023-03-16T07:02:13.651Z,87.10
2023-03-16T07:03:13.656Z,86.20
2023-03-16T07:04:13.921Z,86.70
2023-03-16T07:05:14.432Z,87.20
2023-03-16T07:06:13.335Z,86.80
2023-03-16T07:07:13.160Z,86.60
2023-03-16T07:08:13.679Z,87.10
2023-03-16T07:09:13.816Z,85.70
2023-03-16T07:10:13.868Z,86.10
2023-03-16T07:11:14.181Z,85.90
2023-03-16T07:12:13.108Z,84.40
2023-03-16T07:13:13.303Z,85.60
2023-03-16T07:14:13.634Z,86.40
2023-03-16T07:15:13.596Z,85.40
2023-03-16T07:16:14.084Z,85.10
2023-03-16T07:17:13.052Z,84.10
2023-03-16T07:18:13.011Z,83.90
2023-03-16T07:19:13.427Z,84.10
2023-03-16T07:20:13.300Z,82.10
2023-03-16T07:21:13.378Z,83.90
2023-03-16T07:22:13.360Z,85.60
2023-03-16T07:23:13.406Z,86.60
2023-03-16T07:24:13.391Z,86.80
2023-03-16T07:25:13.367Z,86.20
2023-03-16T07:26:14.798Z,85.40
2023-03-16T07:27:14.143Z,85.00
2023-03-16T07:28:13.479Z,84.10
2023-03-16T07:29:13.787Z,84.20
2023-03-16T07:30:13.878Z,84.80
2023-03-16T07:31:13.826Z,84.10
2023-03-16T07:32:14.121Z,84.30
2023-03-16T07:33:13.188Z,86.50
2023-03-16T07:34:13.205Z,86.20
2023-03-16T07:35:13.226Z,87.80
2023-03-16T07:36:13.355Z,86.40
2023-03-16T07:37:14.065Z,84.70
2023-03-16T07:38:12.974Z,84.60
2023-03-16T07:39:13.151Z,84.50
2023-03-16T07:40:13.332Z,83.90
2023-03-16T07:41:13.724Z,82.80
2023-03-16T07:42:13.598Z,83.70
2023-03-16T07:43:13.906Z,85.00
2023-03-16T07:44:13.053Z,83.40
2023-03-16T07:45:13.198Z,82.90
2023-03-16T07:46:13.584Z,83.10
2023-03-16T07:47:13.861Z,82.20
2023-03-16T07:48:14.035Z,80.00
2023-03-16T07:49:12.982Z,82.40
2023-03-16T07:50:12.904Z,79.50
2023-03-16T07:51:13.089Z,80.40
2023-03-16T07:52:13.091Z,77.80
2023-03-16T07:53:13.183Z,78.00
2023-03-16T07:54:13.527Z,76.50
2023-03-16T07:55:13.584Z,75.80
2023-03-16T07:56:13.777Z,75.40
2023-03-16T07:57:13.652Z,76.90
2023-03-16T07:58:13.707Z,77.00
2023-03-16T07:59:14.527Z,78.10
2023-03-16T08:00:13.642Z,75.90
2023-03-16T08:01:13.737Z,74.70
2023-03-16T08:02:14.004Z,75.20
2023-03-16T08:03:13.055Z,74.70
2023-03-16T08:04:13.380Z,73.60
2023-03-16T08:05:13.705Z,73.30
2023-03-16T08:06:13.854Z,72.60
2023-03-16T08:07:14.089Z,72.20
2023-03-16T08:08:13.245Z,72.40
2023-03-16T08:09:13.348Z,72.40
2023-03-16T08:10:13.427Z,72.50
2023-03-16T08:11:13.309Z,73.40
2023-03-16T08:12:13.205Z,72.30
2023-03-16T08:13:13.160Z,72.00
2023-03-16T08:14:13.203Z,71.50
2023-03-16T08:15:13.714Z,72.70
2023-03-16T08:16:13.957Z,72.10
2023-03-16T08:17:13.104Z,69.90
2023-03-16T08:18:13.397Z,72.20
2023-03-16T08:19:13.657Z,72.40
2023-03-16T08:20:13.716Z,71.30
2023-03-16T08:21:13.772Z,73.60
2023-03-16T08:22:14.034Z,71.30
2023-03-16T08:23:13.030Z,71.60
2023-03-16T08:24:13.182Z,71.70
2023-03-16T08:25:13.228Z,71.80
2023-03-16T08:26:13.237Z,71.40
2023-03-16T08:27:13.579Z,69.90
2023-03-16T08:28:13.682Z,69.60
2023-03-16T08:29:13.990Z,70.20
2023-03-16T08:30:13.008Z,69.00
2023-03-16T08:31:12.989Z,69.50
2023-03-16T08:32:13.256Z,70.50
2023-03-16T08:33:13.363Z,70.50
2023-03-16T08:34:13.584Z,70.90
2023-03-16T08:35:13.601Z,70.20
2023-03-16T08:36:14.012Z,68.70
2023-03-16T08:37:13.527Z,71.50
2023-03-16T08:38:13.660Z,71.90
2023-03-16T08:39:13.883Z,70.50
2023-03-16T08:40:13.863Z,70.30
2023-03-16T08:41:13.921Z,69.50
2023-03-16T08:42:12.875Z,69.90
2023-03-16T08:43:13.875Z,70.60
2023-03-16T08:44:14.032Z,71.10
2023-03-16T08:45:14.383Z,70.10
2023-03-16T08:46:14.130Z,70.60
2023-03-16T08:47:13.137Z,71.00
2023-03-16T08:48:13.349Z,70.00
2023-03-16T08:49:13.242Z,70.10
2023-03-16T08:50:13.301Z,69.80
2023-03-16T08:51:13.434Z,70.00
2023-03-16T08:52:13.407Z,70.10
2023-03-16T08:53:13.434Z,70.90
2023-03-16T08:54:13.648Z,70.20
2023-03-16T08:55:13.575Z,70.80
2023-03-16T08:56:13.701Z,71.00
2023-03-16T08:57:13.844Z,70.00
2023-03-16T08:58:13.852Z,68.80
2023-03-16T08:59:27.032Z,69.00
2023-03-16T09:00:12.819Z,69.70
2023-03-16T09:01:13.823Z,69.90
2023-03-16T09:02:14.075Z,69.80
2023-03-16T09:03:13.470Z,69.50
2023-03-16T09:04:13.757Z,69.30
2023-03-16T09:05:13.723Z,69.60
2023-03-16T09:06:14.142Z,69.40
2023-03-16T09:07:13.459Z,68.90
2023-03-16T09:08:13.686Z,70.70
2023-03-16T09:09:13.664Z,70.40
2023-03-16T09:10:13.703Z,70.20
2023-03-16T09:11:13.681Z,69.50
2023-03-16T09:12:13.674Z,70.10
2023-03-16T09:13:13.649Z,69.90
2023-03-16T09:14:13.627Z,68.70
2023-03-16T09:15:13.650Z,69.40
2023-03-16T09:16:13.665Z,69.60
2023-03-16T09:17:13.641Z,69.80
2023-03-16T09:18:13.850Z,70.50
2023-03-16T09:19:14.122Z,68.80
2023-03-16T09:20:35.045Z,69.30
2023-03-16T09:21:13.391Z,69.90
2023-03-16T09:22:13.628Z,69.60
2023-03-16T09:23:13.857Z,69.10
2023-03-16T09:24:14.101Z,69.80
2023-03-16T09:25:13.236Z,70.50
2023-03-16T09:26:13.106Z,69.70
2023-03-16T09:27:13.199Z,70.40
2023-03-16T09:28:13.715Z,70.50
2023-03-16T09:29:13.948Z,69.70
2023-03-16T09:30:13.044Z,70.50
2023-03-16T09:31:13.104Z,70.50
2023-03-16T09:32:13.616Z,71.20
2023-03-16T09:33:13.853Z,70.80
2023-03-16T09:34:15.118Z,69.80
2023-03-16T09:35:13.040Z,70.50
2023-03-16T09:36:13.367Z,71.10
2023-03-16T09:37:13.416Z,70.30
2023-03-16T09:38:13.380Z,70.40
2023-03-16T09:39:13.303Z,70.00
2023-03-16T09:40:13.434Z,70.80
2023-03-16T09:41:13.399Z,68.70
2023-03-16T09:42:13.298Z,69.60
2023-03-16T09:43:13.283Z,69.90
2023-03-16T09:44:13.187Z,70.90
2023-03-16T09:45:13.183Z,68.90
2023-03-16T09:46:13.352Z,69.80
2023-03-16T09:47:13.447Z,70.20
2023-03-16T09:48:13.322Z,70.00
2023-03-16T09:49:13.303Z,67.90
2023-03-16T09:50:13.311Z,69.90
2023-03-16T09:51:13.306Z,69.70
2023-03-16T09:52:13.797Z,69.60
2023-03-16T09:53:13.798Z,69.40
2023-03-16T09:54:13.794Z,67.60
2023-03-16T09:55:13.824Z,68.20
2023-03-16T09:56:13.902Z,68.20
2023-03-16T09:57:12.805Z,68.10
2023-03-16T09:58:13.803Z,65.90
2023-03-16T09:59:13.695Z,68.00
2023-03-16T10:00:13.612Z,67.30
2023-03-16T10:01:13.672Z,68.10
2023-03-16T10:02:13.740Z,66.80
2023-03-16T10:03:13.749Z,66.50
2023-03-16T10:04:13.700Z,66.80
2023-03-16T10:05:13.966Z,66.20
2023-03-16T10:06:13.798Z,64.50
2023-03-16T10:07:13.788Z,63.40
2023-03-16T10:08:13.903Z,62.40
2023-03-16T10:09:13.196Z,65.00
2023-03-16T10:10:13.571Z,63.20
2023-03-16T10:11:13.411Z,64.80
2023-03-16T10:12:13.571Z,64.40
2023-03-16T10:13:13.545Z,65.00
2023-03-16T10:14:13.790Z,63.00
2023-03-16T10:15:13.787Z,61.20
2023-03-16T10:16:14.920Z,61.80
2023-03-16T10:17:12.864Z,62.60
2023-03-16T10:18:13.902Z,62.90
2023-03-16T10:19:12.909Z,61.80
2023-03-16T10:20:13.141Z,62.50
2023-03-16T10:21:13.440Z,63.10
2023-03-16T10:22:13.576Z,63.70
2023-03-16T10:23:13.612Z,62.20
2023-03-16T10:24:13.552Z,62.10
2023-03-16T10:25:13.676Z,63.50
2023-03-16T10:26:13.961Z,62.00
2023-03-16T10:27:13.201Z,60.70
2023-03-16T10:28:13.413Z,59.90
2023-03-16T10:29:13.427Z,60.60
2023-03-16T10:30:13.677Z,60.80
2023-03-16T10:31:13.867Z,61.60
2023-03-16T10:32:12.800Z,61.00
2023-03-16T10:33:15.030Z,63.50
2023-03-16T10:34:13.312Z,63.50
2023-03-16T10:35:13.240Z,62.20
2023-03-16T10:36:13.533Z,63.30
2023-03-16T10:37:14.144Z,63.50
2023-03-16T10:38:14.048Z,62.10
2023-03-16T10:39:13.087Z,61.50
2023-03-16T10:40:12.991Z,62.80
2023-03-16T10:41:12.883Z,61.80
2023-03-16T10:42:12.827Z,62.90
2023-03-16T10:43:13.783Z,62.60
2023-03-16T10:44:14.049Z,63.10
2023-03-16T10:45:13.160Z,63.70
2023-03-16T10:46:14.955Z,64.40
2023-03-16T10:47:13.465Z,63.70
2023-03-16T10:48:13.445Z,63.10
2023-03-16T10:49:13.454Z,64.00
2023-03-16T10:50:14.403Z,63.40
2023-03-16T10:51:13.576Z,63.80
2023-03-16T10:52:13.989Z,63.60
2023-03-16T10:53:12.971Z,62.90
2023-03-16T10:54:12.864Z,62.30
2023-03-16T10:55:13.812Z,64.20
2023-03-16T10:56:13.979Z,63.90
2023-03-16T10:57:13.398Z,65.50
2023-03-16T10:58:13.510Z,65.40
2023-03-16T10:59:13.491Z,66.30
2023-03-16T11:00:13.557Z,65.30
2023-03-16T11:01:13.617Z,67.00
2023-03-16T11:02:13.981Z,66.30
2023-03-16T11:03:13.193Z,67.10
2023-03-16T11:04:13.558Z,68.30
2023-03-16T11:05:13.526Z,67.10
2023-03-16T11:06:13.497Z,68.80
2023-03-16T11:07:13.784Z,68.70
2023-03-16T11:08:13.856Z,67.40
2023-03-16T11:09:13.764Z,67.90
2023-03-16T11:10:13.754Z,68.90
2023-03-16T11:11:13.790Z,68.70
2023-03-16T11:12:14.141Z,69.50
2023-03-16T11:13:13.455Z,69.10
2023-03-16T11:14:13.552Z,68.80
2023-03-16T11:15:25.281Z,69.70
2023-03-16T11:16:14.297Z,69.30
2023-03-16T11:17:13.686Z,67.10
2023-03-16T11:18:13.968Z,67.30
2023-03-16T11:19:12.922Z,68.70
2023-03-16T11:20:12.866Z,67.80
2023-03-16T11:21:13.770Z,67.00
2023-03-16T11:22:14.293Z,67.50
2023-03-16T11:23:13.558Z,68.60
2023-03-16T11:24:13.916Z,69.70
2023-03-16T11:25:13.080Z,69.10
2023-03-16T11:26:13.232Z,70.20
2023-03-16T11:27:13.503Z,69.90
2023-03-16T11:28:13.818Z,69.60
2023-03-16T11:29:14.188Z,67.30
2023-03-16T11:30:13.622Z,68.20
2023-03-16T11:31:14.098Z,68.50
2023-03-16T11:32:14.199Z,67.00
2023-03-16T11:33:13.351Z,67.10
2023-03-16T11:34:13.411Z,65.90
2023-03-16T11:35:13.417Z,67.40
2023-03-16T11:36:13.513Z,66.70
2023-03-16T11:37:13.581Z,66.70
2023-03-16T11:38:13.531Z,68.10
2023-03-16T11:39:13.603Z,67.70
2023-03-16T11:40:13.550Z,67.10
2023-03-16T11:41:13.812Z,67.90
2023-03-16T11:42:13.703Z,67.60
2023-03-16T11:43:13.972Z,65.80
2023-03-16T11:44:13.156Z,65.70
2023-03-16T11:45:13.022Z,62.90
2023-03-16T11:46:13.141Z,63.40
2023-03-16T11:47:13.563Z,64.10
2023-03-16T11:48:13.522Z,63.20
2023-03-16T11:49:13.870Z,63.90
2023-03-16T11:50:13.945Z,63.60
2023-03-16T11:51:12.960Z,62.10
2023-03-16T11:52:12.969Z,60.80
2023-03-16T11:53:13.066Z,58.40
2023-03-16T11:54:13.237Z,57.70
2023-03-16T11:55:13.444Z,56.00
2023-03-16T11:56:13.441Z,55.40
2023-03-16T11:57:13.529Z,55.60
2023-03-16T11:58:13.693Z,54.80
2023-03-16T11:59:14.040Z,54.10
2023-03-16T12:00:13.245Z,55.00
2023-03-16T12:01:13.493Z,54.20
2023-03-16T12:02:13.501Z,54.90
2023-03-16T12:03:13.774Z,54.70
2023-03-16T12:04:13.868Z,54.20
2023-03-16T12:05:12.810Z,54.20
2023-03-16T12:06:22.671Z,54.70
2023-03-16T12:07:13.788Z,54.60
2023-03-16T12:08:13.646Z,54.60
2023-03-16T12:09:13.813Z,54.90
2023-03-16T12:10:14.090Z,54.30
2023-03-16T12:11:13.106Z,54.40
2023-03-16T12:12:13.110Z,54.90
2023-03-16T12:13:13.096Z,51.80
2023-03-16T12:14:13.362Z,52.50
2023-03-16T12:15:13.557Z,52.70
2023-03-16T12:16:13.886Z,51.30
2023-03-16T12:17:12.923Z,50.60
2023-03-16T12:18:12.939Z,49.30
2023-03-16T12:19:18.252Z,49.00
2023-03-16T12:20:13.396Z,47.90
2023-03-16T12:21:13.457Z,48.10
2023-03-16T12:22:13.447Z,46.80
2023-03-16T12:23:13.334Z,45.60
2023-03-16T12:24:13.615Z,45.00
2023-03-16T12:25:13.730Z,44.40
2023-03-16T12:26:14.182Z,44.80
2023-03-16T12:27:13.195Z,44.60
2023-03-16T12:28:13.118Z,45.00
2023-03-16T12:29:12.971Z,43.60
2023-03-16T12:30:12.990Z,43.60
2023-03-16T12:31:13.084Z,44.70
2023-03-16T12:32:13.146Z,44.60
2023-03-16T12:33:13.057Z,45.70
2023-03-16T12:34:13.349Z,44.00
2023-03-16T12:35:13.387Z,45.90
2023-03-16T12:36:13.660Z,45.00
2023-03-16T12:37:13.782Z,47.40
2023-03-16T12:38:13.667Z,46.10
2023-03-16T12:39:13.586Z,45.70
2023-03-16T12:40:13.812Z,45.50
2023-03-16T12:41:15.997Z,46.30
2023-03-16T12:42:13.387Z,46.70
2023-03-16T12:43:18.387Z,48.40
2023-03-16T12:44:13.879Z,48.20
2023-03-16T12:45:12.868Z,47.00